Strona główna
METAR-TAF:

METAR-TAF

Lotnisko :

Port lotniczy Władywostok

Władywostok, Rosja

Szerokość geograficzna: 43-07N, Długość geograficzna: 131-56E, wysokość: 184 m

Aktualna obserwacja pogody

Raport powstał 15 minut temu, godzina 07:00 UTC
Wiatr 8 kt od północno-północny wschód
Temperatura -6°C
Wilgotność 38%
Ciśnienie 1023 hPa
Widzialność 10 km lub więcej

METAR: UHWW 240700Z 03004MPS 9999 NSC M06/M18 Q1023 R25L/0///70 NOSIG RMK QFE766

czas: 17:15 (07:15 UTC)

Prognoza

Raport powstał 2 godziny i 20 minut temu, godzina 04:55 UTC
Prognoza ważna od 24 godzina 06 UTC do 25 godzina 06 UTC
Wiatr 6 kt od północno-północny zachód
Widzialność 10 km lub więcej
Rozproszone chmury na wysokości 3000 ft
Przejściowo
od 24 godzina 06 UTC do 24 godzina 15 UTC
Wiatr 17 kt od północno-północny zachód
Widzialność: 5000 m
Przerywane chmury na wysokości 2000 ft, Cumulonimbus.
słaby przelotny opad śniegu

TAF: UHWW 240455Z 2406/2506 34003MPS 9999 SCT030 TEMPO 2406/2415 34009MPS 5000 -SHSN BKN020CB

Obserwacja i prognoza pogody dla ponad 4000 lotnisk (raport METAR i TAF).

Dostępne stacje oznaczono żółtymi i czerwonymi punktami na mapie.

Najedź kursorem aby zobaczyć nazwę stacji.

Kliknij aby zobaczyć obserwacje i prognozy pogody.

Aby zmienić mapę: kliknij na zielony przycisk z czarnym krzyżykiem, aby powiększyć; na zielony przycisk z myślnikiem, aby pomniejszyć; na zielone strzałki, aby przejść do map sąsiednich.


METAR-TAF: